sensor_id;sensor_type;location;lat;lon;timestamp;temperature;humidity
53146;DHT22;39042;53.150;5.898;2023-04-03T00:01:01;2.30;99.90
53146;DHT22;39042;53.150;5.898;2023-04-03T00:03:28;2.30;99.90
53146;DHT22;39042;53.150;5.898;2023-04-03T00:05:54;2.20;99.90
53146;DHT22;39042;53.150;5.898;2023-04-03T00:08:20;2.20;99.90
53146;DHT22;39042;53.150;5.898;2023-04-03T00:10:46;2.20;99.90
53146;DHT22;39042;53.150;5.898;2023-04-03T00:13:13;2.20;99.90
53146;DHT22;39042;53.150;5.898;2023-04-03T00:15:39;2.10;99.90
53146;DHT22;39042;53.150;5.898;2023-04-03T00:18:06;2.10;99.90
53146;DHT22;39042;53.150;5.898;2023-04-03T00:20:32;2.00;99.90
53146;DHT22;39042;53.150;5.898;2023-04-03T00:22:57;2.00;99.90
53146;DHT22;39042;53.150;5.898;2023-04-03T00:25:24;1.90;99.90
53146;DHT22;39042;53.150;5.898;2023-04-03T00:27:51;1.90;99.90
53146;DHT22;39042;53.150;5.898;2023-04-03T00:30:19;1.80;99.90
53146;DHT22;39042;53.150;5.898;2023-04-03T00:32:48;1.80;99.90
53146;DHT22;39042;53.150;5.898;2023-04-03T00:35:14;1.80;99.90
53146;DHT22;39042;53.150;5.898;2023-04-03T00:37:42;1.70;99.90
53146;DHT22;39042;53.150;5.898;2023-04-03T00:40:10;1.70;99.90
53146;DHT22;39042;53.150;5.898;2023-04-03T00:42:37;1.70;99.90
53146;DHT22;39042;53.150;5.898;2023-04-03T00:47:30;1.60;99.90
53146;DHT22;39042;53.150;5.898;2023-04-03T00:49:57;1.60;99.90
53146;DHT22;39042;53.150;5.898;2023-04-03T00:52:27;1.50;99.90
53146;DHT22;39042;53.150;5.898;2023-04-03T00:55:01;1.50;99.90
53146;DHT22;39042;53.150;5.898;2023-04-03T00:57:30;1.50;99.90
53146;DHT22;39042;53.150;5.898;2023-04-03T01:00:02;1.50;99.90
53146;DHT22;39042;53.150;5.898;2023-04-03T01:02:31;1.50;99.90
53146;DHT22;39042;53.150;5.898;2023-04-03T01:04:57;1.50;99.90
53146;DHT22;39042;53.150;5.898;2023-04-03T01:07:27;1.40;99.90
53146;DHT22;39042;53.150;5.898;2023-04-03T01:09:57;1.40;99.90
53146;DHT22;39042;53.150;5.898;2023-04-03T01:12:28;1.40;99.90
53146;DHT22;39042;53.150;5.898;2023-04-03T01:14:57;1.40;99.90
53146;DHT22;39042;53.150;5.898;2023-04-03T01:25:59;1.30;99.90
53146;DHT22;39042;53.150;5.898;2023-04-03T01:28:31;1.30;99.90
53146;DHT22;39042;53.150;5.898;2023-04-03T01:33:35;1.20;99.90
53146;DHT22;39042;53.150;5.898;2023-04-03T01:36:03;1.20;99.90
53146;DHT22;39042;53.150;5.898;2023-04-03T01:38:30;1.30;99.90
53146;DHT22;39042;53.150;5.898;2023-04-03T01:40:56;1.30;99.90
53146;DHT22;39042;53.150;5.898;2023-04-03T01:43:21;1.30;99.90
53146;DHT22;39042;53.150;5.898;2023-04-03T01:45:47;1.30;99.90
53146;DHT22;39042;53.150;5.898;2023-04-03T01:48:16;1.30;99.90
53146;DHT22;39042;53.150;5.898;2023-04-03T01:50:42;1.30;99.90
53146;DHT22;39042;53.150;5.898;2023-04-03T01:53:08;1.30;99.90
53146;DHT22;39042;53.150;5.898;2023-04-03T01:55:34;1.20;99.90
53146;DHT22;39042;53.150;5.898;2023-04-03T01:58:00;1.20;99.90
53146;DHT22;39042;53.150;5.898;2023-04-03T02:00:26;1.20;99.90
53146;DHT22;39042;53.150;5.898;2023-04-03T02:02:52;1.20;99.90
53146;DHT22;39042;53.150;5.898;2023-04-03T02:05:18;1.20;99.90
53146;DHT22;39042;53.150;5.898;2023-04-03T02:07:44;1.20;99.90
53146;DHT22;39042;53.150;5.898;2023-04-03T02:10:11;1.20;99.90
53146;DHT22;39042;53.150;5.898;2023-04-03T02:12:37;1.10;99.90
53146;DHT22;39042;53.150;5.898;2023-04-03T02:15:04;1.10;99.90
53146;DHT22;39042;53.150;5.898;2023-04-03T02:17:30;1.20;99.90
53146;DHT22;39042;53.150;5.898;2023-04-03T02:19:56;1.20;99.90
53146;DHT22;39042;53.150;5.898;2023-04-03T02:22:22;1.20;99.90
53146;DHT22;39042;53.150;5.898;2023-04-03T02:24:48;1.10;99.90
53146;DHT22;39042;53.150;5.898;2023-04-03T02:27:14;1.10;99.90
53146;DHT22;39042;53.150;5.898;2023-04-03T02:29:40;1.10;99.90
53146;DHT22;39042;53.150;5.898;2023-04-03T02:32:06;1.10;99.90
53146;DHT22;39042;53.150;5.898;2023-04-03T02:34:33;1.10;99.90
53146;DHT22;39042;53.150;5.898;2023-04-03T02:37:00;1.10;99.90
53146;DHT22;39042;53.150;5.898;2023-04-03T02:39:26;1.10;99.90
53146;DHT22;39042;53.150;5.898;2023-04-03T02:41:52;1.00;99.90
53146;DHT22;39042;53.150;5.898;2023-04-03T02:44:22;1.00;99.90
53146;DHT22;39042;53.150;5.898;2023-04-03T02:46:49;1.00;99.90
53146;DHT22;39042;53.150;5.898;2023-04-03T02:49:17;1.00;99.90
53146;DHT22;39042;53.150;5.898;2023-04-03T02:51:43;1.00;99.90
53146;DHT22;39042;53.150;5.898;2023-04-03T02:54:09;1.00;99.90
53146;DHT22;39042;53.150;5.898;2023-04-03T02:56:38;0.90;99.90
53146;DHT22;39042;53.150;5.898;2023-04-03T02:59:04;0.90;99.90
53146;DHT22;39042;53.150;5.898;2023-04-03T03:01:32;0.90;99.90
53146;DHT22;39042;53.150;5.898;2023-04-03T03:03:59;0.90;99.90
53146;DHT22;39042;53.150;5.898;2023-04-03T03:06:25;0.90;99.90
53146;DHT22;39042;53.150;5.898;2023-04-03T03:08:51;0.90;99.90
53146;DHT22;39042;53.150;5.898;2023-04-03T03:11:17;0.90;99.90
53146;DHT22;39042;53.150;5.898;2023-04-03T03:13:43;0.80;99.90
53146;DHT22;39042;53.150;5.898;2023-04-03T03:16:09;0.80;99.90
53146;DHT22;39042;53.150;5.898;2023-04-03T03:18:35;0.80;99.90
53146;DHT22;39042;53.150;5.898;2023-04-03T03:21:03;0.80;99.90
53146;DHT22;39042;53.150;5.898;2023-04-03T03:23:31;0.80;99.90
53146;DHT22;39042;53.150;5.898;2023-04-03T03:26:02;0.80;99.90
53146;DHT22;39042;53.150;5.898;2023-04-03T03:28:29;0.80;99.90
53146;DHT22;39042;53.150;5.898;2023-04-03T03:30:55;0.70;99.90
53146;DHT22;39042;53.150;5.898;2023-04-03T03:33:22;0.70;99.90
53146;DHT22;39042;53.150;5.898;2023-04-03T03:35:48;0.70;99.90
53146;DHT22;39042;53.150;5.898;2023-04-03T03:38:14;0.60;99.90
53146;DHT22;39042;53.150;5.898;2023-04-03T03:40:40;0.60;99.90
53146;DHT22;39042;53.150;5.898;2023-04-03T03:43:06;0.60;99.90
53146;DHT22;39042;53.150;5.898;2023-04-03T03:45:32;0.50;99.90
53146;DHT22;39042;53.150;5.898;2023-04-03T03:47:58;0.50;99.90
53146;DHT22;39042;53.150;5.898;2023-04-03T03:50:24;0.50;99.90
53146;DHT22;39042;53.150;5.898;2023-04-03T03:52:50;0.50;99.90
53146;DHT22;39042;53.150;5.898;2023-04-03T03:55:16;0.50;99.90
53146;DHT22;39042;53.150;5.898;2023-04-03T03:57:43;0.50;99.90
53146;DHT22;39042;53.150;5.898;2023-04-03T04:00:10;0.40;99.90
53146;DHT22;39042;53.150;5.898;2023-04-03T04:02:44;0.40;99.90
53146;DHT22;39042;53.150;5.898;2023-04-03T04:05:14;0.40;99.90
53146;DHT22;39042;53.150;5.898;2023-04-03T04:07:40;0.40;99.90
53146;DHT22;39042;53.150;5.898;2023-04-03T04:10:07;0.40;99.90
53146;DHT22;39042;53.150;5.898;2023-04-03T15:41:11;8.50;94.10
53146;DHT22;39042;53.150;5.898;2023-04-03T15:43:37;8.30;93.50
53146;DHT22;39042;53.150;5.898;2023-04-03T15:46:03;8.30;93.90
53146;DHT22;39042;53.150;5.898;2023-04-03T15:48:29;8.30;93.90
53146;DHT22;39042;53.150;5.898;2023-04-03T15:50:56;8.20;94.20
53146;DHT22;39042;53.150;5.898;2023-04-03T15:53:22;8.20;93.80
53146;DHT22;39042;53.150;5.898;2023-04-03T15:55:47;8.20;93.30
53146;DHT22;39042;53.150;5.898;2023-04-03T15:58:13;8.10;93.80
53146;DHT22;39042;53.150;5.898;2023-04-03T16:00:39;8.10;94.70
53146;DHT22;39042;53.150;5.898;2023-04-03T16:03:11;8.10;94.80
53146;DHT22;39042;53.150;5.898;2023-04-03T16:05:38;8.20;95.40
53146;DHT22;39042;53.150;5.898;2023-04-03T16:08:05;8.10;95.30
53146;DHT22;39042;53.150;5.898;2023-04-03T16:10:34;8.10;95.30
53146;DHT22;39042;53.150;5.898;2023-04-03T16:12:59;8.10;94.80
53146;DHT22;39042;53.150;5.898;2023-04-03T16:15:26;8.00;94.60
53146;DHT22;39042;53.150;5.898;2023-04-03T16:17:53;7.90;94.80
53146;DHT22;39042;53.150;5.898;2023-04-03T16:20:19;7.90;95.00
53146;DHT22;39042;53.150;5.898;2023-04-03T16:22:47;7.90;95.30
53146;DHT22;39042;53.150;5.898;2023-04-03T16:25:13;7.90;95.00
53146;DHT22;39042;53.150;5.898;2023-04-03T16:27:39;7.80;94.80
53146;DHT22;39042;53.150;5.898;2023-04-03T16:30:07;7.80;95.20
53146;DHT22;39042;53.150;5.898;2023-04-03T16:32:33;7.70;94.80
53146;DHT22;39042;53.150;5.898;2023-04-03T16:34:59;7.60;95.00
53146;DHT22;39042;53.150;5.898;2023-04-03T16:37:25;7.60;95.00
53146;DHT22;39042;53.150;5.898;2023-04-03T16:39:52;7.50;94.90
53146;DHT22;39042;53.150;5.898;2023-04-03T16:42:18;7.50;94.90
53146;DHT22;39042;53.150;5.898;2023-04-03T16:44:43;7.40;95.30
53146;DHT22;39042;53.150;5.898;2023-04-03T16:47:09;7.40;95.90
53146;DHT22;39042;53.150;5.898;2023-04-03T16:49:36;7.40;95.80
53146;DHT22;39042;53.150;5.898;2023-04-03T16:52:02;7.50;96.10
53146;DHT22;39042;53.150;5.898;2023-04-03T16:54:31;7.50;96.50
53146;DHT22;39042;53.150;5.898;2023-04-03T16:56:57;7.40;96.40
53146;DHT22;39042;53.150;5.898;2023-04-03T16:59:23;7.40;95.70
53146;DHT22;39042;53.150;5.898;2023-04-03T17:01:49;7.40;95.70
53146;DHT22;39042;53.150;5.898;2023-04-03T17:04:15;7.40;96.10
53146;DHT22;39042;53.150;5.898;2023-04-03T17:06:41;7.40;96.10
53146;DHT22;39042;53.150;5.898;2023-04-03T17:09:07;7.30;96.00
53146;DHT22;39042;53.150;5.898;2023-04-03T17:11:34;7.20;96.40
53146;DHT22;39042;53.150;5.898;2023-04-03T17:14:00;7.10;96.60
53146;DHT22;39042;53.150;5.898;2023-04-03T17:16:26;7.10;96.30
53146;DHT22;39042;53.150;5.898;2023-04-03T17:18:52;7.00;96.50
53146;DHT22;39042;53.150;5.898;2023-04-03T17:21:19;7.00;96.80
53146;DHT22;39042;53.150;5.898;2023-04-03T17:23:49;7.00;97.30
53146;DHT22;39042;53.150;5.898;2023-04-03T17:26:16;6.90;97.40
53146;DHT22;39042;53.150;5.898;2023-04-03T17:28:42;6.90;97.30
